Time;durP1;ratioP1;P1;durP2;ratioP2;P2;SDS_P1;SDS_P2;PMS_P1;PMS_P2;Temp;Humidity;BMP_temperature;BMP_pressure;BME280_temperature;BME280_humidity;BME280_pressure;Samples;Min_cycle;Max_cycle;Signal;HPM_P1;HPM_P2
2023/02/14 00:01:44;;;;;;;66.78;32.15;;;;;;;-143.48;93.62;118439.88;5056370;28;20028;-28
2023/02/14 00:04:09;;;;;;;65.15;32.20;;;;;;;-143.48;93.57;118439.88;5056585;28;20533;-28
2023/02/14 00:06:37;;;;;;;64.57;32.72;;;;;;;-143.48;93.53;118439.88;5056318;28;20101;-27
2023/02/14 00:09:04;;;;;;;67.07;32.25;;;;;;;-143.48;93.58;118439.88;5056637;28;20040;-27
2023/02/14 00:11:30;;;;;;;63.50;31.20;;;;;;;-143.48;94.49;118439.88;5056566;28;20053;-27
2023/02/14 00:16:40;;;;;;;61.88;29.73;;;;;;;-143.48;93.66;118439.88;5056422;28;20035;-27
2023/02/14 00:19:06;;;;;;;64.38;30.17;;;;;;;-143.48;93.88;118439.88;5055965;28;20400;-27
2023/02/14 00:21:34;;;;;;;63.88;30.65;;;;;;;-143.48;94.50;118439.88;5056638;28;20158;-27
2023/02/14 00:24:04;;;;;;;62.60;30.70;;;;;;;-143.48;94.33;118439.88;5056266;28;20024;-27
2023/02/14 00:26:29;;;;;;;59.58;29.65;;;;;;;-143.48;93.58;118439.88;5056338;28;20402;-27
2023/02/14 00:28:55;;;;;;;62.53;29.33;;;;;;;-143.48;94.02;118439.88;5055700;28;20021;-27
2023/02/14 00:31:20;;;;;;;59.33;28.65;;;;;;;-143.48;92.89;118439.88;5056202;28;20147;-27
2023/02/14 00:33:45;;;;;;;55.58;28.50;;;;;;;-143.48;93.35;118439.88;5056140;28;20403;-27
2023/02/14 00:36:11;;;;;;;53.92;27.02;;;;;;;-143.48;92.53;118439.88;5056412;28;20047;-28
2023/02/14 00:38:36;;;;;;;55.70;27.17;;;;;;;-143.48;92.29;118439.88;5055969;28;20029;-27
2023/02/14 00:41:02;;;;;;;54.67;27.45;;;;;;;-143.48;92.51;118439.88;5055775;28;20025;-27
2023/02/14 00:43:27;;;;;;;59.90;28.70;;;;;;;-143.48;92.99;118439.88;5055813;28;20029;-27
2023/02/14 00:45:53;;;;;;;55.03;26.92;;;;;;;-143.48;92.75;118439.88;5056220;28;20418;-27
2023/02/14 00:48:18;;;;;;;56.00;27.42;;;;;;;-143.48;93.09;118439.88;5055543;28;20456;-27
2023/02/14 00:50:45;;;;;;;56.00;28.33;;;;;;;-143.48;93.35;118439.88;5055763;28;20059;-28
2023/02/14 00:53:10;;;;;;;53.05;26.52;;;;;;;-143.48;93.43;118439.88;5055775;28;20061;-27
2023/02/14 00:55:36;;;;;;;55.58;28.00;;;;;;;-143.48;93.80;118439.88;5055972;28;20036;-27
2023/02/14 00:58:01;;;;;;;59.45;27.02;;;;;;;-143.48;94.33;118439.88;5055391;28;20426;-27
2023/02/14 01:00:26;;;;;;;60.45;26.98;;;;;;;-143.48;94.47;118439.88;5055584;28;20036;-27
2023/02/14 01:02:52;;;;;;;59.10;26.88;;;;;;;-143.48;94.90;118439.88;5055206;28;20025;-27
2023/02/14 01:05:17;;;;;;;58.05;27.23;;;;;;;-143.48;94.77;118439.88;5055411;28;20066;-27
2023/02/14 01:07:42;;;;;;;57.65;26.63;;;;;;;-143.48;95.53;118439.88;5055568;28;20084;-27
2023/02/14 01:10:08;;;;;;;54.38;25.63;;;;;;;-143.48;95.45;118439.88;5055456;28;20027;-28
2023/02/14 01:12:33;;;;;;;48.10;25.10;;;;;;;-143.48;95.11;118439.88;5055330;28;20379;-27
2023/02/14 01:14:58;;;;;;;53.33;24.45;;;;;;;-143.48;94.67;118439.88;5055108;28;20543;-27
2023/02/14 01:17:24;;;;;;;51.88;25.42;;;;;;;-143.48;94.93;118439.88;5055325;28;20033;-27
2023/02/14 01:19:51;;;;;;;59.88;25.10;;;;;;;-143.48;95.05;118439.88;5054898;28;20075;-28
2023/02/14 01:22:16;;;;;;;46.60;24.38;;;;;;;-143.48;95.10;118439.88;5055362;28;20425;-27
2023/02/14 01:24:42;;;;;;;47.88;24.88;;;;;;;-143.48;94.56;118439.88;5055430;28;20108;-27
2023/02/14 01:27:07;;;;;;;48.95;23.80;;;;;;;-143.48;94.89;118439.88;5055198;28;20380;-27
2023/02/14 01:29:32;;;;;;;48.65;24.42;;;;;;;-143.48;95.01;118439.88;5054778;28;20060;-27
2023/02/14 01:31:58;;;;;;;49.90;23.67;;;;;;;-143.48;95.08;118439.88;5054778;28;20387;-27
2023/02/14 01:34:23;;;;;;;50.50;24.25;;;;;;;-143.48;95.16;118439.88;5055187;28;20037;-28
2023/02/14 01:36:48;;;;;;;63.13;25.00;;;;;;;-143.48;95.18;118439.88;5054934;28;20070;-27
2023/02/14 01:39:14;;;;;;;54.88;24.75;;;;;;;-143.48;95.08;118439.88;5054611;28;20028;-27
2023/02/14 01:41:42;;;;;;;75.78;24.33;;;;;;;-143.48;94.77;118439.88;5054274;28;20030;-27
2023/02/14 01:44:27;;;;;;;71.57;22.52;;;;;;;-143.48;95.44;118439.88;5054397;28;20025;-27
2023/02/14 01:46:54;;;;;;;97.40;23.92;;;;;;;-143.48;95.07;118439.88;5054340;28;20079;-27
2023/02/14 01:49:30;;;;;;;87.15;23.13;;;;;;;-143.48;94.56;118439.88;5054475;28;20059;-27
2023/02/14 01:52:02;;;;;;;106.13;24.38;;;;;;;-143.48;94.98;118439.88;5054365;28;20025;-27
2023/02/14 01:54:29;;;;;;;109.38;22.92;;;;;;;-143.48;94.96;118439.88;5054908;28;20039;-27
2023/02/14 01:57:03;;;;;;;63.47;24.35;;;;;;;-143.48;95.52;118439.88;5054292;28;20086;-28
2023/02/14 01:59:35;;;;;;;52.63;23.55;;;;;;;-143.48;95.69;118439.88;5054504;28;20020;-27
2023/02/14 02:02:01;;;;;;;47.13;24.55;;;;;;;-143.48;96.16;118439.88;5054397;28;20047;-27
2023/02/14 02:04:36;;;;;;;46.15;23.95;;;;;;;-143.48;95.96;118439.88;5054429;28;20025;-27
2023/02/14 02:07:05;;;;;;;45.05;23.42;;;;;;;-143.48;95.29;118439.88;5054076;28;20033;-27
2023/02/14 02:09:54;;;;;;;48.28;22.95;;;;;;;-143.48;95.05;118439.88;5054063;28;20028;-27
2023/02/14 02:12:20;;;;;;;44.20;21.92;;;;;;;-143.48;95.01;118439.88;5054281;28;20032;-27
2023/02/14 02:14:49;;;;;;;42.78;22.17;;;;;;;-143.48;94.63;118439.88;5054218;28;20041;-27
2023/02/14 02:17:20;;;;;;;48.20;23.70;;;;;;;-143.48;94.90;118439.88;5054374;28;20025;-27
2023/02/14 02:20:04;;;;;;;46.05;23.13;;;;;;;-143.48;94.82;118439.88;5053835;28;20052;-27
2023/02/14 02:22:50;;;;;;;46.33;23.17;;;;;;;-143.48;94.67;118439.88;5054046;28;20033;-27
2023/02/14 02:25:43;;;;;;;45.90;23.92;;;;;;;-143.48;94.53;118439.88;5053761;28;20032;-27
2023/02/14 02:28:39;;;;;;;42.90;23.20;;;;;;;-143.48;94.06;118439.88;5052085;28;20163;-28
2023/02/14 02:31:10;;;;;;;45.45;22.52;;;;;;;-143.48;93.12;118439.88;5051823;28;20021;-27
2023/02/14 02:34:18;;;;;;;44.33;22.65;;;;;;;-143.48;93.43;118439.88;5052219;28;20017;-27
2023/02/14 02:36:55;;;;;;;42.45;21.95;;;;;;;-143.48;93.45;118439.88;5051935;28;20086;-27
2023/02/14 02:39:31;;;;;;;42.60;21.27;;;;;;;-143.48;93.06;118439.88;5051859;28;20029;-27
2023/02/14 02:42:12;;;;;;;40.50;21.40;;;;;;;-143.48;93.39;118439.88;5052394;28;20031;-27
2023/02/14 02:44:55;;;;;;;40.90;21.80;;;;;;;-143.48;93.49;118439.88;5053513;28;20029;-27
2023/02/14 02:47:26;;;;;;;45.58;22.67;;;;;;;-143.48;93.80;118439.88;5054056;28;20032;-27
2023/02/14 02:53:02;;;;;;;46.15;22.98;;;;;;;-143.48;93.04;118439.88;5052702;28;20036;-27
2023/02/14 02:58:29;;;;;;;45.08;21.50;;;;;;;-143.48;93.94;118439.88;5053305;28;19949;-27
2023/02/14 03:00:58;;;;;;;46.97;21.58;;;;;;;-143.48;94.07;118439.88;5053491;28;20111;-28
2023/02/14 03:06:11;;;;;;;57.47;22.50;;;;;;;-143.48;94.50;118439.88;5053270;28;20086;-27
2023/02/14 03:08:36;;;;;;;47.63;22.90;;;;;;;-143.48;94.22;118439.88;5053446;28;20371;-27
2023/02/14 03:11:03;;;;;;;47.85;23.60;;;;;;;-143.48;94.32;118439.88;5053181;28;20017;-27
2023/02/14 03:14:02;;;;;;;47.50;23.25;;;;;;;-143.48;94.54;118439.88;5053383;28;20029;-27
2023/02/14 03:16:44;;;;;;;44.65;22.17;;;;;;;-143.48;94.90;118439.88;5053396;28;20028;-27
2023/02/14 03:22:31;;;;;;;47.10;21.80;;;;;;;-143.48;94.74;118439.88;5053688;28;20040;-27
2023/02/14 03:25:10;;;;;;;43.38;20.88;;;;;;;-143.48;95.09;118439.88;5053349;28;20379;-27
2023/02/14 03:27:48;;;;;;;47.78;21.55;;;;;;;-143.48;94.69;118439.88;5053246;28;20031;-27
2023/02/14 03:30:35;;;;;;;48.53;22.30;;;;;;;-143.48;94.52;118439.88;5052957;28;20029;-27
2023/02/14 03:33:07;;;;;;;47.28;21.30;;;;;;;-143.48;94.89;118439.88;5053214;28;20372;-27
2023/02/14 03:35:46;;;;;;;112.47;22.13;;;;;;;-143.48;95.58;118439.88;5053200;28;20021;-27
2023/02/14 03:38:20;;;;;;;132.70;23.77;;;;;;;-143.48;95.94;118439.88;5052841;28;20029;-27
2023/02/14 03:40:53;;;;;;;98.55;23.02;;;;;;;-143.48;96.13;118439.88;5052861;28;20025;-27
2023/02/14 03:43:25;;;;;;;108.90;25.42;;;;;;;-143.48;95.99;118439.88;5052690;28;20025;-27
2023/02/14 03:45:57;;;;;;;109.40;26.13;;;;;;;-143.48;96.09;118439.88;5053305;28;20024;-27
2023/02/14 03:48:26;;;;;;;64.22;22.42;;;;;;;-143.48;95.95;118439.88;5053144;28;20020;-27
2023/02/14 03:50:53;;;;;;;52.97;21.90;;;;;;;-143.48;95.72;118439.88;5052839;28;20395;-28
2023/02/14 03:53:24;;;;;;;45.03;22.08;;;;;;;-143.48;95.66;118439.88;5052819;28;20017;-27
2023/02/14 03:55:52;;;;;;;49.42;21.95;;;;;;;-143.48;95.12;118439.88;5052722;28;20095;-27
2023/02/14 03:58:38;;;;;;;44.53;21.40;;;;;;;-143.48;95.33;118439.88;5052882;28;20025;-27
2023/02/14 04:01:20;;;;;;;48.88;21.70;;;;;;;-143.48;95.39;118439.88;5053238;28;20408;-27
2023/02/14 04:03:47;;;;;;;58.63;20.50;;;;;;;-143.48;95.15;118439.88;5054124;28;20032;-26
2023/02/14 04:06:15;;;;;;;75.60;22.50;;;;;;;-143.48;95.98;118439.88;5056643;28;20086;-27
2023/02/14 04:08:41;;;;;;;57.90;20.17;;;;;;;-143.48;95.98;118439.88;5056280;28;20025;-27
2023/02/14 04:11:06;;;;;;;49.83;21.10;;;;;;;-143.48;95.45;118439.88;5056624;28;20526;-27
2023/02/14 04:13:33;;;;;;;128.55;19.05;;;;;;;-143.48;95.29;118439.88;5056534;28;20032;-27
2023/02/14 04:15:58;;;;;;;261.00;23.08;;;;;;;-143.48;95.44;118439.88;5056802;28;20025;-27
2023/02/14 04:21:07;;;;;;;132.85;18.20;;;;;;;-143.48;95.70;118439.88;5056133;28;20036;-27
2023/02/14 04:23:33;;;;;;;134.48;19.75;;;;;;;-143.48;95.56;118439.88;5056278;28;20388;-27
2023/02/14 04:25:58;;;;;;;158.32;21.58;;;;;;;-143.48;95.74;118439.88;5056063;28;20025;-27
2023/02/14 04:28:24;;;;;;;164.85;19.88;;;;;;;-143.48;95.37;118439.88;5056196;28;20021;-27
2023/02/14 04:30:49;;;;;;;285.52;24.02;;;;;;;-143.48;95.61;118439.88;5056357;28;20067;-27
2023/02/14 04:33:14;;;;;;;113.30;19.23;;;;;;;-143.48;95.24;118439.88;5056104;28;20017;-28
2023/02/14 04:35:39;;;;;;;109.10;19.17;;;;;;;-143.48;95.70;118439.88;5055746;28;20115;-27
2023/02/14 04:38:05;;;;;;;119.25;20.98;;;;;;;-143.48;96.02;118439.88;5056039;28;20025;-27
2023/02/14 04:40:31;;;;;;;96.32;18.35;;;;;;;-143.48;95.86;118439.88;5054390;28;20415;-27
2023/02/14 04:42:56;;;;;;;96.03;20.80;;;;;;;-143.48;95.28;118439.88;5055588;28;20025;-27
2023/02/14 04:45:21;;;;;;;102.85;21.45;;;;;;;-143.48;95.42;118439.88;5055916;28;20020;-27
2023/02/14 04:47:47;;;;;;;100.00;18.75;;;;;;;-143.48;95.16;118439.88;5055825;28;20025;-27
2023/02/14 04:50:13;;;;;;;144.15;20.27;;;;;;;-143.48;94.89;118439.88;5055835;28;20036;-28
2023/02/14 04:52:38;;;;;;;144.07;17.88;;;;;;;-143.48;94.74;118439.88;5055423;28;20028;-27
2023/02/14 04:55:04;;;;;;;87.20;16.63;;;;;;;-143.48;95.11;118439.88;5055300;28;20024;-27
2023/02/14 04:57:30;;;;;;;82.05;18.00;;;;;;;-143.48;95.26;118439.88;5055389;28;20060;-28
2023/02/14 04:59:55;;;;;;;74.55;16.42;;;;;;;-143.48;95.38;118439.88;5055506;28;20052;-27
2023/02/14 05:02:21;;;;;;;61.35;16.75;;;;;;;-143.48;95.15;118439.88;5055274;28;20070;-27
2023/02/14 05:04:46;;;;;;;36.75;16.08;;;;;;;-143.48;95.29;118439.88;5055723;28;20388;-27
2023/02/14 05:07:11;;;;;;;33.03;15.25;;;;;;;-143.48;94.61;118439.88;5055534;28;20107;-27
2023/02/14 05:09:37;;;;;;;45.75;15.32;;;;;;;-143.48;94.20;118439.88;5053929;28;20066;-27
2023/02/14 05:12:02;;;;;;;40.38;15.10;;;;;;;-143.48;94.17;118439.88;5055330;28;20181;-27
2023/02/14 05:14:28;;;;;;;33.85;15.20;;;;;;;-143.48;93.88;118439.88;5055231;28;20025;-27
2023/02/14 05:16:53;;;;;;;31.10;15.95;;;;;;;-143.48;94.30;118439.88;5054369;28;20025;-27
2023/02/14 05:19:18;;;;;;;30.45;16.13;;;;;;;-143.48;94.14;118439.88;5054813;28;20049;-28
2023/02/14 05:21:44;;;;;;;39.05;16.85;;;;;;;-143.48;94.20;118439.88;5053537;28;20033;-27
2023/02/14 05:24:09;;;;;;;31.02;16.55;;;;;;;-143.48;94.51;118439.88;5055008;28;20024;-27
2023/02/14 05:26:34;;;;;;;30.80;16.67;;;;;;;-143.48;94.81;118439.88;5054871;28;20361;-27
2023/02/14 05:29:00;;;;;;;31.25;16.95;;;;;;;-143.48;94.50;118439.88;5054785;28;20031;-28
2023/02/14 05:31:25;;;;;;;30.65;16.40;;;;;;;-143.48;94.38;118439.88;5051259;28;20029;-27
2023/02/14 05:33:50;;;;;;;31.75;16.58;;;;;;;-143.48;94.13;118439.88;5052613;28;20028;-27
2023/02/14 05:36:15;;;;;;;30.15;16.98;;;;;;;-143.48;94.13;118439.88;5052496;28;20029;-27
2023/02/14 05:38:41;;;;;;;31.90;16.77;;;;;;;-143.48;93.45;118439.88;5052547;28;20032;-26
2023/02/14 05:41:06;;;;;;;31.13;16.23;;;;;;;-143.48;92.79;118439.88;5052535;28;20052;-27
2023/02/14 05:43:31;;;;;;;32.53;16.55;;;;;;;-143.48;93.45;118439.88;5052361;28;20067;-27
2023/02/14 05:45:57;;;;;;;30.23;15.75;;;;;;;-143.48;92.81;118439.88;5054436;28;20021;-26
2023/02/14 05:48:22;;;;;;;30.10;16.38;;;;;;;-143.48;92.22;118439.88;5054539;28;20052;-26
2023/02/14 05:50:48;;;;;;;29.27;16.00;;;;;;;-143.48;92.02;118439.88;5054651;28;20526;-27
2023/02/14 05:53:14;;;;;;;30.30;16.45;;;;;;;-143.48;92.01;118439.88;5054700;28;20055;-27
2023/02/14 05:55:39;;;;;;;31.60;16.98;;;;;;;-143.48;92.18;118439.88;5054298;28;20033;-27
2023/02/14 05:58:05;;;;;;;31.38;16.30;;;;;;;-143.48;92.39;118439.88;5054492;28;20029;-27
2023/02/14 06:00:30;;;;;;;29.30;15.77;;;;;;;-143.48;92.22;118439.88;5054206;28;20031;-26
2023/02/14 06:02:56;;;;;;;29.13;16.15;;;;;;;-143.48;92.95;118439.88;5054550;28;20025;-27
2023/02/14 06:05:21;;;;;;;30.70;15.90;;;;;;;-143.48;92.44;118439.88;5054387;28;20380;-27
2023/02/14 06:07:49;;;;;;;29.15;15.57;;;;;;;-143.48;92.02;118439.88;5054208;28;20391;-27
2023/02/14 06:10:30;;;;;;;29.40;15.93;;;;;;;-143.48;91.94;118439.88;5054047;28;20036;-27
2023/02/14 06:13:09;;;;;;;;;;;;;;;;;;;;;
2023/02/14 06:15:36;;;;;;;28.20;15.30;;;;;;;-143.48;92.32;118439.88;5051425;28;20044;-27
2023/02/14 06:18:03;;;;;;;29.02;16.23;;;;;;;-143.48;92.29;118439.88;5052808;28;20040;-29
2023/02/14 06:20:29;;;;;;;27.08;14.82;;;;;;;-143.48;92.63;118439.88;5053802;28;20543;-27
2023/02/14 06:22:54;;;;;;;29.30;15.57;;;;;;;-143.48;92.79;118439.88;5053848;28;20107;-27
2023/02/14 06:25:22;;;;;;;29.67;16.00;;;;;;;-143.48;92.77;118439.88;5052580;28;20065;-27
2023/02/14 06:27:47;;;;;;;36.95;16.15;;;;;;;-143.48;92.11;118439.88;5054061;28;20029;-27
2023/02/14 06:30:14;;;;;;;37.28;15.70;;;;;;;-143.48;92.32;118439.88;5053619;28;20380;-27
2023/02/14 06:32:39;;;;;;;30.85;16.48;;;;;;;-143.48;92.42;118439.88;5053252;28;20055;-26
2023/02/14 06:35:05;;;;;;;28.35;15.07;;;;;;;-143.48;91.86;118439.88;5053459;28;20483;-26
2023/02/14 06:37:31;;;;;;;33.83;15.48;;;;;;;-143.48;92.01;118439.88;5053369;28;20058;-27
2023/02/14 06:39:56;;;;;;;29.88;16.60;;;;;;;-143.48;91.88;118439.88;5053098;28;20099;-27
2023/02/14 06:42:22;;;;;;;33.42;16.63;;;;;;;-143.48;91.97;118439.88;5052915;28;20036;-27
2023/02/14 06:44:47;;;;;;;40.83;21.77;;;;;;;-143.48;91.28;118439.88;5053036;28;20525;-27
2023/02/14 06:47:12;;;;;;;34.38;16.55;;;;;;;-143.48;91.77;118439.88;5053620;28;20067;-27
2023/02/14 06:49:38;;;;;;;32.72;17.08;;;;;;;-143.48;91.86;118439.88;5053371;28;20487;-27
2023/02/14 06:52:04;;;;;;;34.22;16.27;;;;;;;-143.48;92.26;118439.88;5053671;28;20371;-27
2023/02/14 06:54:30;;;;;;;32.95;17.08;;;;;;;-143.48;92.90;118439.88;5053562;28;20024;-28
2023/02/14 06:56:59;;;;;;;29.90;16.20;;;;;;;-143.48;93.15;118439.88;5053252;28;20402;-28
2023/02/14 06:59:24;;;;;;;33.88;16.98;;;;;;;-143.48;92.96;118439.88;5052675;28;20032;-27
2023/02/14 07:01:49;;;;;;;33.35;17.42;;;;;;;-143.48;92.96;118439.88;5053513;28;20025;-27
2023/02/14 07:04:16;;;;;;;31.63;16.52;;;;;;;-143.48;92.26;118439.88;5050915;28;20369;-27
2023/02/14 07:06:41;;;;;;;30.80;16.38;;;;;;;-143.48;92.26;118439.88;5051049;28;20047;-28
2023/02/14 07:09:07;;;;;;;31.63;16.20;;;;;;;-143.48;91.68;118439.88;5050944;28;20033;-28
2023/02/14 07:11:32;;;;;;;30.23;16.35;;;;;;;-143.48;91.69;118439.88;5051198;28;20020;-27
2023/02/14 07:13:57;;;;;;;31.92;17.10;;;;;;;-143.48;92.08;118439.88;5050744;28;20052;-28
2023/02/14 07:16:23;;;;;;;33.38;17.42;;;;;;;-143.48;91.67;118439.88;5051137;28;20035;-27
2023/02/14 07:18:48;;;;;;;36.10;17.17;;;;;;;-143.48;91.10;118439.88;5052339;28;20492;-27
2023/02/14 07:21:13;;;;;;;30.80;17.45;;;;;;;-143.48;90.96;118439.88;5053591;28;20032;-28
2023/02/14 07:23:39;;;;;;;33.25;16.92;;;;;;;-143.48;90.25;118439.88;5053236;28;20079;-27
2023/02/14 07:26:04;;;;;;;34.42;17.33;;;;;;;-143.48;90.61;118439.88;5052892;28;20075;-27
2023/02/14 07:28:32;;;;;;;38.03;18.20;;;;;;;-143.48;90.74;118439.88;5053231;28;20439;-27
2023/02/14 07:31:00;;;;;;;36.40;17.73;;;;;;;-143.48;89.72;118439.88;5053241;28;20029;-28
2023/02/14 07:33:26;;;;;;;35.20;18.08;;;;;;;-143.48;88.24;118439.88;5053427;28;20056;-28
2023/02/14 07:35:51;;;;;;;32.40;17.55;;;;;;;-143.48;86.22;118439.88;5053127;28;20025;-27
2023/02/14 07:38:17;;;;;;;34.20;19.02;;;;;;;-143.48;86.37;118439.88;5052848;28;20395;-28
2023/02/14 07:40:42;;;;;;;37.80;18.30;;;;;;;-143.48;84.85;118439.88;5057158;28;20440;-27
2023/02/14 07:43:07;;;;;;;32.95;17.85;;;;;;;-143.48;84.27;118439.88;5057001;28;20376;-28
2023/02/14 07:45:33;;;;;;;34.28;16.67;;;;;;;-143.48;82.60;118439.88;5056670;28;20056;-29
2023/02/14 07:48:00;;;;;;;29.95;16.95;;;;;;;-143.48;83.12;118439.88;5057018;28;20055;-28
2023/02/14 07:50:27;;;;;;;27.77;17.42;;;;;;;-143.48;81.04;118439.88;5055347;28;20119;-28
2023/02/14 07:52:53;;;;;;;31.83;18.42;;;;;;;-143.48;81.99;118439.88;5056969;28;20112;-28
2023/02/14 07:55:20;;;;;;;32.05;18.33;;;;;;;-143.48;84.90;118439.88;5056589;28;20384;-28
2023/02/14 07:57:48;;;;;;;38.40;18.23;;;;;;;-143.48;86.41;118439.88;5056500;28;20032;-28
2023/02/14 08:00:14;;;;;;;31.13;18.48;;;;;;;-143.48;81.85;118439.88;5057151;28;20123;-28
2023/02/14 08:02:41;;;;;;;31.10;17.52;;;;;;;-143.48;75.48;118439.88;5057258;28;20021;-28
2023/02/14 08:05:09;;;;;;;29.42;17.70;;;;;;;-143.48;72.07;118439.88;5022245;28;20029;-28
2023/02/14 08:07:35;;;;;;;25.92;17.48;;;;;;;-143.48;68.69;118439.88;5056831;28;20074;-28
2023/02/14 08:10:00;;;;;;;24.92;17.25;;;;;;;-143.48;68.75;118439.88;5056734;28;20037;-28
2023/02/14 08:17:55;;;;;;;29.17;17.85;;;;;;;-143.48;65.73;118439.88;5056374;28;20078;-28
2023/02/14 08:20:20;;;;;;;25.98;17.85;;;;;;;-143.48;64.30;118439.88;5056048;28;20154;-29
2023/02/14 08:22:45;;;;;;;25.10;18.25;;;;;;;-143.48;65.79;118439.88;5056362;28;20466;-33
2023/02/14 08:25:11;;;;;;;25.55;17.45;;;;;;;-143.48;65.59;118439.88;5056393;28;20406;-28
2023/02/14 08:27:36;;;;;;;24.88;17.48;;;;;;;-143.48;65.95;118439.88;5055165;28;20427;-29
2023/02/14 08:30:01;;;;;;;25.42;17.83;;;;;;;-143.48;63.35;118439.88;5055799;28;20025;-28
2023/02/14 08:32:27;;;;;;;25.30;17.95;;;;;;;-143.48;62.09;118439.88;5055887;28;20049;-29
2023/02/14 08:34:52;;;;;;;24.52;17.90;;;;;;;-143.48;62.91;118439.88;5056117;28;20021;-29
2023/02/14 08:37:17;;;;;;;28.75;19.17;;;;;;;-143.48;64.92;118439.88;5055715;28;20029;-28
2023/02/14 08:39:43;;;;;;;28.52;19.15;;;;;;;-143.48;70.42;118439.88;5055804;28;20036;-28
2023/02/14 08:42:08;;;;;;;34.60;20.40;;;;;;;-143.48;74.91;118439.88;5054601;28;20052;-28
2023/02/14 08:44:34;;;;;;;33.28;20.73;;;;;;;-143.48;78.92;118439.88;5055926;28;20111;-28
2023/02/14 08:46:59;;;;;;;35.75;20.52;;;;;;;-143.48;78.12;118439.88;5055932;28;20029;-28
2023/02/14 08:49:24;;;;;;;33.65;21.23;;;;;;;-143.48;79.24;118439.88;5054266;28;20029;-28
2023/02/14 08:51:49;;;;;;;35.10;21.20;;;;;;;-143.48;79.57;118439.88;5055619;28;20525;-28
2023/02/14 08:54:15;;;;;;;34.75;20.83;;;;;;;-143.48;81.18;118439.88;5054992;28;20040;-28
2023/02/14 08:56:41;;;;;;;36.22;21.45;;;;;;;-143.48;82.65;118439.88;5054580;28;20054;-28
2023/02/14 08:59:06;;;;;;;36.90;20.42;;;;;;;-143.48;81.76;118439.88;5055520;28;20391;-28
2023/02/14 09:01:32;;;;;;;36.47;21.98;;;;;;;-143.48;81.93;118439.88;5055296;28;20024;-28
2023/02/14 09:03:58;;;;;;;43.53;22.95;;;;;;;-143.48;83.00;118439.88;5054920;28;20029;-28
2023/02/14 09:06:23;;;;;;;38.47;21.77;;;;;;;-143.48;83.19;118439.88;5054861;28;20179;-28
2023/02/14 09:08:49;;;;;;;40.78;22.90;;;;;;;-143.48;82.10;118439.88;5055107;28;20056;-28
2023/02/14 09:11:19;;;;;;;42.65;23.45;;;;;;;-143.48;71.61;118439.88;5055357;28;20379;-28
2023/02/14 09:13:45;;;;;;;35.50;22.48;;;;;;;-143.48;62.68;118439.88;5055007;28;20082;-29
2023/02/14 09:16:12;;;;;;;34.55;22.73;;;;;;;-143.48;58.65;118439.88;5054119;28;20090;-29
2023/02/14 09:18:38;;;;;;;35.20;22.23;;;;;;;-143.48;58.81;118439.88;5054965;28;20102;-28
2023/02/14 09:21:09;;;;;;;36.05;23.13;;;;;;;-143.48;58.56;118439.88;5055358;28;20033;-28
2023/02/14 09:23:35;;;;;;;33.22;22.02;;;;;;;-143.48;57.15;118439.88;5054926;28;20047;-29
2023/02/14 09:26:02;;;;;;;32.58;22.20;;;;;;;-143.48;57.56;118439.88;5055231;28;20024;-29
2023/02/14 09:28:28;;;;;;;32.20;22.55;;;;;;;-143.48;53.07;118439.88;5054810;28;20025;-28
2023/02/14 09:30:53;;;;;;;28.52;21.30;;;;;;;-143.48;52.04;118439.88;5054880;28;20032;-29
2023/02/14 09:33:18;;;;;;;32.90;22.42;;;;;;;-143.48;50.71;118439.88;5055593;28;20025;-29
2023/02/14 09:38:27;;;;;;;30.27;22.33;;;;;;;-143.48;49.95;118439.88;5054846;28;20051;-29
2023/02/14 09:40:53;;;;;;;30.63;22.55;;;;;;;-143.48;48.96;118439.88;5054677;28;20029;-28
2023/02/14 09:43:32;;;;;;;30.65;22.02;;;;;;;-143.48;49.45;118439.88;5053156;28;20025;-29
2023/02/14 09:45:59;;;;;;;29.33;22.77;;;;;;;-143.48;49.67;118439.88;5054504;28;20025;-29
2023/02/14 09:48:30;;;;;;;29.83;21.83;;;;;;;-143.48;48.26;118439.88;5054244;28;20040;-29
2023/02/14 09:51:18;;;;;;;30.65;22.60;;;;;;;-143.48;46.09;118439.88;5054637;28;20371;-29
2023/02/14 09:53:49;;;;;;;28.95;21.77;;;;;;;-143.48;46.79;118439.88;5054882;28;20052;-29
2023/02/14 09:56:34;;;;;;;27.35;21.42;;;;;;;-143.48;45.05;118439.88;5054497;28;20032;-29
2023/02/14 09:59:24;;;;;;;27.67;21.35;;;;;;;-143.48;43.19;118439.88;5054581;28;20103;-28
2023/02/14 10:02:15;;;;;;;29.70;21.00;;;;;;;-143.48;43.19;118439.88;5054187;28;20031;-28
2023/02/14 10:04:46;;;;;;;26.60;20.95;;;;;;;-143.48;44.01;118439.88;5054051;28;20025;-27
2023/02/14 10:07:31;;;;;;;30.63;21.40;;;;;;;-143.48;44.22;118439.88;5054372;28;20353;-28
2023/02/14 10:10:18;;;;;;;30.17;20.88;;;;;;;-143.48;42.54;118439.88;5054497;28;20029;-28
2023/02/14 10:12:55;;;;;;;29.02;21.10;;;;;;;-143.48;42.10;118439.88;5054002;28;20030;-28
2023/02/14 10:15:24;;;;;;;25.35;20.38;;;;;;;-143.48;42.36;118439.88;5054216;28;20025;-28
2023/02/14 10:18:03;;;;;;;25.90;19.95;;;;;;;-143.48;40.94;118439.88;5053806;28;20096;-28
2023/02/14 10:20:38;;;;;;;28.70;21.13;;;;;;;-143.48;41.88;118439.88;5052885;28;20045;-29
2023/02/14 10:23:27;;;;;;;26.17;20.13;;;;;;;-143.48;41.32;118439.88;5052843;28;20131;-28
2023/02/14 10:26:03;;;;;;;27.58;20.13;;;;;;;-143.48;39.74;118439.88;5052959;28;20076;-28
2023/02/14 10:28:36;;;;;;;27.35;19.35;;;;;;;-143.48;40.56;118439.88;5052928;28;20029;-28
2023/02/14 10:31:21;;;;;;;27.40;20.27;;;;;;;-143.48;39.49;118439.88;5052926;28;20025;-29
2023/02/14 10:33:55;;;;;;;26.42;19.55;;;;;;;-143.48;39.10;118439.88;5053411;28;20023;-28
2023/02/14 10:36:48;;;;;;;25.05;19.23;;;;;;;-143.48;38.82;118439.88;5053619;28;20056;-28
2023/02/14 10:39:24;;;;;;;;;;;;;;;-143.48;38.07;118439.88;5053930;28;20375;-28
2023/02/14 10:42:08;;;;;;;23.98;18.42;;;;;;;-143.48;36.91;118439.88;5053421;28;19913;-28
2023/02/14 10:44:52;;;;;;;25.42;18.85;;;;;;;-143.48;36.50;118439.88;5053633;28;20036;-28
2023/02/14 10:47:36;;;;;;;24.50;18.42;;;;;;;-143.48;37.39;118439.88;5053642;28;20029;-28
2023/02/14 10:50:14;;;;;;;24.02;18.20;;;;;;;-143.48;36.02;118439.88;5053889;28;20021;-29
2023/02/14 10:53:03;;;;;;;24.25;17.92;;;;;;;-143.48;35.13;118439.88;5053285;28;20072;-29
2023/02/14 10:55:45;;;;;;;24.38;18.67;;;;;;;-143.48;35.25;118439.88;5053497;28;20104;-29
2023/02/14 10:58:14;;;;;;;27.50;19.50;;;;;;;-143.48;34.95;118439.88;5053246;28;20108;-29
2023/02/14 11:00:52;;;;;;;29.15;19.42;;;;;;;-143.48;35.50;118439.88;5053764;28;20107;-29
2023/02/14 11:03:17;;;;;;;24.35;18.58;;;;;;;-143.48;34.65;118439.88;5052889;28;20025;-29
2023/02/14 11:05:46;;;;;;;24.70;18.23;;;;;;;-143.48;35.57;118439.88;5053322;28;20074;-29
2023/02/14 11:08:24;;;;;;;25.98;18.58;;;;;;;-143.48;35.11;118439.88;5051923;28;20537;-28
2023/02/14 11:10:49;;;;;;;26.70;19.58;;;;;;;-143.48;36.20;118439.88;5053455;28;20105;-29
2023/02/14 11:13:29;;;;;;;31.75;19.60;;;;;;;-143.48;35.29;118439.88;5052133;28;20443;-29
2023/02/14 11:15:59;;;;;;;30.20;19.77;;;;;;;-143.48;35.24;118439.88;5057290;28;20016;-29
2023/02/14 11:18:31;;;;;;;28.00;19.15;;;;;;;-143.48;34.17;118439.88;5057328;28;20099;-29
2023/02/14 11:21:12;;;;;;;34.58;20.65;;;;;;;-143.48;34.99;118439.88;5057549;28;20460;-28
2023/02/14 11:23:39;;;;;;;28.88;19.58;;;;;;;-143.48;35.33;118439.88;5056888;28;20086;-29
2023/02/14 11:26:10;;;;;;;30.40;20.02;;;;;;;-143.48;35.12;118439.88;5056887;28;20039;-29
2023/02/14 11:28:44;;;;;;;29.58;19.85;;;;;;;-143.48;35.08;118439.88;5054269;28;20076;-28
2023/02/14 11:31:10;;;;;;;29.77;19.45;;;;;;;-143.48;35.80;118439.88;5054762;28;20075;-29